Time;durP1;ratioP1;P1;durP2;ratioP2;P2;SDS_P1;SDS_P2;PMS_P1;PMS_P2;Temp;Humidity;BMP_temperature;BMP_pressure;BME280_temperature;BME280_humidity;BME280_pressure;Samples;Min_cycle;Max_cycle;Signal;HPM_P1;HPM_P2
2021/11/16 00:00:46;;;;;;;28.33;11.33;;;8.80;1.00;;;;;;5002020;28;20919;-73
2021/11/16 00:03:13;;;;;;;20.80;9.90;;;9.20;1.00;;;;;;5009577;28;20487;-72
2021/11/16 00:05:39;;;;;;;22.27;10.97;;;8.80;1.00;;;;;;5006269;28;20507;-73
2021/11/16 00:08:06;;;;;;;24.30;11.20;;;8.80;1.00;;;;;;5013583;28;20974;-73
2021/11/16 00:10:33;;;;;;;20.70;9.90;;;8.90;1.00;;;;;;5013672;28;20420;-73
2021/11/16 00:13:09;;;;;;;22.07;11.43;;;8.80;1.00;;;;;;5013999;28;20565;-73
2021/11/16 00:15:36;;;;;;;18.90;10.40;;;8.80;1.00;;;;;;5013694;28;20474;-73
2021/11/16 00:18:02;;;;;;;27.03;11.00;;;8.90;1.00;;;;;;5014109;28;20427;-73
2021/11/16 00:20:28;;;;;;;24.40;11.07;;;8.90;1.00;;;;;;5008999;28;20523;-73
2021/11/16 00:22:54;;;;;;;24.03;10.87;;;8.90;1.00;;;;;;5008642;28;20962;-73
2021/11/16 00:25:23;;;;;;;25.50;10.50;;;8.90;1.00;;;;;;5013588;28;20427;-73
2021/11/16 00:27:50;;;;;;;26.50;12.27;;;8.90;1.00;;;;;;5012383;28;20235;-73
2021/11/16 00:30:18;;;;;;;23.40;11.80;;;8.90;1.00;;;;;;5013468;28;20423;-73
2021/11/16 00:32:44;;;;;;;29.80;11.87;;;8.70;1.00;;;;;;5013580;28;20443;-74
2021/11/16 00:35:10;;;;;;;28.03;12.77;;;8.70;1.00;;;;;;5013251;28;20432;-73
2021/11/16 00:37:36;;;;;;;31.37;12.33;;;8.70;1.00;;;;;;5013225;28;20432;-73
2021/11/16 00:40:09;;;;;;;24.93;11.83;;;8.70;1.00;;;;;;5007594;28;20519;-73
2021/11/16 00:42:34;;;;;;;30.50;12.23;;;8.70;1.00;;;;;;4993994;28;20393;-72
2021/11/16 00:45:01;;;;;;;25.70;10.80;;;8.70;1.00;;;;;;4993450;28;20844;-73
2021/11/16 00:47:33;;;;;;;31.20;12.00;;;8.80;1.00;;;;;;5008252;28;20408;-77
2021/11/16 00:50:04;;;;;;;22.10;11.10;;;8.80;1.00;;;;;;5013522;28;20404;-77
2021/11/16 00:52:30;;;;;;;36.67;12.40;;;8.80;1.00;;;;;;5013144;28;20419;-77
2021/11/16 00:55:20;;;;;;;29.90;11.60;;;8.70;1.00;;;;;;5018704;28;20411;-77
2021/11/16 00:58:03;;;;;;;28.23;11.97;;;8.70;1.00;;;;;;5017536;28;20744;-77
2021/11/16 01:00:29;;;;;;;25.33;11.23;;;8.70;1.00;;;;;;5012184;28;20426;-77
2021/11/16 01:02:57;;;;;;;24.50;11.40;;;8.70;1.00;;;;;;5012326;28;20404;-73
2021/11/16 01:05:24;;;;;;;36.40;13.47;;;8.70;1.00;;;;;;5004538;28;20428;-73
2021/11/16 01:07:51;;;;;;;27.77;13.00;;;8.60;1.00;;;;;;5009450;28;20420;-73
2021/11/16 01:10:19;;;;;;;31.90;12.30;;;8.60;1.00;;;;;;5013533;28;20404;-73
2021/11/16 01:12:57;;;;;;;29.80;12.10;;;8.50;1.00;;;;;;5000163;28;20959;-73
2021/11/16 01:15:23;;;;;;;30.33;12.23;;;10.90;1.00;;;;;;5013526;28;20404;-73
2021/11/16 01:17:50;;;;;;;31.83;12.63;;;8.60;1.00;;;;;;5013625;28;20419;-72
2021/11/16 01:20:16;;;;;;;32.07;12.33;;;8.60;1.00;;;;;;5003961;28;20615;-73
2021/11/16 01:22:44;;;;;;;26.47;11.97;;;8.50;1.00;;;;;;5014963;28;20432;-73
2021/11/16 01:25:15;;;;;;;27.20;11.77;;;8.50;1.00;;;;;;5017060;28;20883;-72
2021/11/16 01:27:42;;;;;;;23.30;11.87;;;8.60;1.00;;;;;;5014917;28;20432;-73
2021/11/16 01:30:12;;;;;;;28.40;13.27;;;8.70;1.00;;;;;;5009258;28;20550;-73
2021/11/16 01:32:42;;;;;;;22.90;10.83;;;8.70;1.00;;;;;;5016713;28;20518;-76
2021/11/16 01:35:09;;;;;;;34.83;12.23;;;8.70;1.00;;;;;;5017022;28;20438;-77
2021/11/16 01:38:09;;;;;;;31.97;11.83;;;8.70;1.00;;;;;;5016828;28;20439;-77
2021/11/16 01:44:03;;;;;;;33.87;13.23;;;8.60;1.00;;;;;;5016478;28;20486;-77
2021/11/16 01:46:28;;;;;;;30.50;12.53;;;8.50;1.00;;;;;;5016599;28;20439;-77
2021/11/16 01:48:57;;;;;;;28.67;11.23;;;8.60;1.00;;;;;;5016623;28;20444;-73
2021/11/16 01:51:27;;;;;;;24.20;11.03;;;8.60;1.00;;;;;;5016467;28;20235;-73
2021/11/16 01:54:02;;;;;;;26.70;12.13;;;8.60;1.00;;;;;;5016633;28;20520;-73
2021/11/16 01:56:33;;;;;;;30.67;12.17;;;8.70;1.00;;;;;;5019910;28;20431;-73
2021/11/16 01:58:59;;;;;;;27.60;11.80;;;8.60;1.00;;;;;;5016086;28;20420;-73
2021/11/16 02:01:30;;;;;;;29.70;11.70;;;8.60;1.00;;;;;;5016259;28;20448;-73
2021/11/16 02:03:56;;;;;;;27.00;12.23;;;8.50;1.00;;;;;;5010585;28;20463;-77
2021/11/16 02:06:26;;;;;;;29.37;12.00;;;8.50;1.00;;;;;;5009891;28;20438;-77
2021/11/16 02:08:54;;;;;;;32.50;12.10;;;8.50;1.00;;;;;;5016140;28;20432;-77
2021/11/16 02:11:50;;;;;;;34.33;13.47;;;8.50;1.00;;;;;;5016482;28;20389;-77
2021/11/16 02:14:27;;;;;;;27.43;12.27;;;8.50;1.00;;;;;;5015998;28;20419;-77
2021/11/16 02:16:57;;;;;;;25.80;12.00;;;8.60;1.00;;;;;;5016212;28;20725;-77
2021/11/16 02:19:44;;;;;;;33.67;12.10;;;8.60;1.00;;;;;;5016233;28;20432;-77
2021/11/16 02:22:38;;;;;;;26.20;11.77;;;8.60;1.00;;;;;;5016296;28;20910;-76
2021/11/16 02:28:27;;;;;;;30.07;12.87;;;8.60;1.00;;;;;;5008382;28;20515;-77
2021/11/16 02:30:57;;;;;;;28.23;12.00;;;8.60;1.00;;;;;;5015724;28;20485;-77
2021/11/16 02:33:33;;;;;;;28.90;11.83;;;8.60;1.00;;;;;;5015929;28;20396;-73
2021/11/16 02:35:59;;;;;;;34.80;12.57;;;8.60;1.00;;;;;;5015835;28;20832;-73
2021/11/16 02:38:25;;;;;;;31.73;11.90;;;8.60;1.00;;;;;;5015141;28;20447;-73
2021/11/16 02:40:53;;;;;;;29.03;11.60;;;8.60;1.00;;;;;;5015325;28;20443;-73
2021/11/16 02:43:22;;;;;;;23.93;11.23;;;8.50;1.00;;;;;;5015531;28;20444;-73
2021/11/16 02:45:48;;;;;;;30.27;13.03;;;8.50;1.00;;;;;;5015599;28;20419;-73
2021/11/16 02:48:15;;;;;;;28.67;12.00;;;8.50;1.00;;;;;;5015521;28;20432;-73
2021/11/16 02:50:50;;;;;;;30.30;12.53;;;8.50;1.00;;;;;;5015772;28;20939;-73
2021/11/16 02:53:16;;;;;;;42.77;12.40;;;8.50;1.00;;;;;;5014484;28;20438;-73
2021/11/16 02:55:43;;;;;;;26.93;11.70;;;8.50;1.00;;;;;;5026976;28;20426;-73
2021/11/16 02:58:11;;;;;;;33.60;13.20;;;8.50;1.00;;;;;;5013904;28;21001;-73
2021/11/16 03:00:39;;;;;;;26.20;11.80;;;8.50;1.00;;;;;;5004915;28;20451;-73
2021/11/16 03:03:05;;;;;;;24.27;11.80;;;8.60;1.00;;;;;;5011162;28;20497;-73
2021/11/16 03:05:34;;;;;;;23.43;11.37;;;8.50;1.00;;;;;;5015283;28;20436;-73
2021/11/16 03:08:00;;;;;;;26.40;11.73;;;8.50;1.00;;;;;;5014945;28;20519;-73
2021/11/16 03:10:30;;;;;;;27.30;10.63;;;8.60;1.00;;;;;;5005657;28;20416;-73
2021/11/16 03:12:57;;;;;;;34.30;12.13;;;8.60;1.00;;;;;;5001236;28;20420;-73
2021/11/16 03:15:27;;;;;;;28.23;10.67;;;8.60;1.00;;;;;;5014709;28;20463;-73
2021/11/16 03:17:53;;;;;;;25.70;11.60;;;8.60;1.00;;;;;;5014943;28;20432;-73
2021/11/16 03:20:39;;;;;;;28.10;11.90;;;8.60;1.00;;;;;;5015426;28;20411;-77
2021/11/16 03:23:33;;;;;;;33.40;12.93;;;8.60;1.00;;;;;;5000718;28;20416;-76
2021/11/16 03:26:32;;;;;;;28.50;12.13;;;8.40;1.00;;;;;;5014561;28;20428;-78
2021/11/16 03:29:43;;;;;;;28.43;11.70;;;8.50;1.00;;;;;;5015057;28;20428;-76
2021/11/16 03:35:32;;;;;;;33.43;12.53;;;8.50;1.00;;;;;;5008511;28;20474;-73
2021/11/16 03:38:04;;;;;;;24.20;10.53;;;8.50;1.00;;;;;;5014271;28;20830;-73
2021/11/16 03:40:33;;;;;;;28.23;11.90;;;8.50;1.00;;;;;;5014426;28;20767;-73
2021/11/16 03:42:59;;;;;;;28.27;11.20;;;8.50;1.00;;;;;;5014356;28;20470;-73
2021/11/16 03:45:27;;;;;;;30.80;11.67;;;8.50;1.00;;;;;;5011288;28;20797;-73
2021/11/16 03:47:55;;;;;;;21.57;11.40;;;8.50;1.00;;;;;;5014334;28;20440;-73
2021/11/16 03:50:40;;;;;;;25.53;10.73;;;8.50;1.00;;;;;;5015078;28;20416;-76
2021/11/16 03:53:26;;;;;;;27.30;11.90;;;8.50;1.00;;;;;;5014357;28;20754;-76
2021/11/16 03:56:26;;;;;;;35.07;10.90;;;8.40;1.00;;;;;;5014510;28;20398;-77
2021/11/16 03:58:52;;;;;;;25.87;11.20;;;8.50;1.00;;;;;;5012183;28;20974;-77
2021/11/16 04:01:18;;;;;;;24.70;11.30;;;8.50;1.00;;;;;;5013233;28;20566;-77
2021/11/16 04:03:44;;;;;;;29.27;11.80;;;8.50;1.00;;;;;;5013363;28;20463;-77
2021/11/16 04:06:16;;;;;;;25.03;12.23;;;8.50;1.00;;;;;;5013915;28;20169;-77
2021/11/16 04:09:08;;;;;;;24.63;12.10;;;8.50;1.00;;;;;;5009388;28;20431;-77
2021/11/16 04:11:56;;;;;;;29.87;11.77;;;8.50;1.00;;;;;;5014136;28;20462;-77
2021/11/16 04:14:56;;;;;;;28.27;11.57;;;8.50;1.00;;;;;;5014244;28;20981;-77
2021/11/16 04:17:57;;;;;;;26.53;10.73;;;8.50;1.00;;;;;;4996005;28;20497;-77
2021/11/16 04:20:36;;;;;;;32.63;12.93;;;8.50;1.00;;;;;;5014279;28;20509;-73
2021/11/16 04:23:05;;;;;;;27.23;10.87;;;8.50;1.00;;;;;;5014003;28;20860;-73
2021/11/16 04:25:32;;;;;;;24.27;11.63;;;8.50;1.00;;;;;;5011999;28;20437;-73
2021/11/16 04:28:02;;;;;;;30.70;12.43;;;8.50;1.00;;;;;;5013593;28;20439;-73
2021/11/16 04:30:29;;;;;;;30.33;11.60;;;8.50;1.00;;;;;;5013667;28;20431;-73
2021/11/16 04:32:56;;;;;;;32.50;12.23;;;8.30;1.00;;;;;;5013597;28;20419;-73
2021/11/16 04:35:22;;;;;;;35.43;11.87;;;8.40;1.00;;;;;;5013441;28;20412;-74
2021/11/16 04:37:51;;;;;;;36.37;12.23;;;8.40;1.00;;;;;;5013190;28;20416;-73
2021/11/16 04:40:25;;;;;;;28.97;12.67;;;8.50;1.00;;;;;;5013008;28;20432;-73
2021/11/16 04:42:58;;;;;;;25.10;10.93;;;8.50;1.00;;;;;;5002618;28;20910;-73
2021/11/16 04:45:25;;;;;;;26.63;12.00;;;8.50;1.00;;;;;;5013449;28;20432;-73
2021/11/16 04:47:58;;;;;;;30.23;11.60;;;8.50;1.00;;;;;;5000693;28;20434;-73
2021/11/16 05:03:52;;;;;;;25.37;11.53;;;8.50;1.00;;;;;;5002025;28;20486;-73
2021/11/16 05:06:18;;;;;;;25.03;12.10;;;8.50;1.00;;;;;;5006685;28;20420;-73
2021/11/16 05:08:45;;;;;;;41.10;14.13;;;8.50;1.00;;;;;;5016404;28;20530;-73
2021/11/16 05:11:16;;;;;;;31.50;12.50;;;8.50;1.00;;;;;;5015409;28;20495;-73
2021/11/16 05:13:45;;;;;;;28.50;12.30;;;8.50;1.00;;;;;;5017038;28;20743;-73
2021/11/16 05:16:12;;;;;;;30.53;12.93;;;8.50;1.00;;;;;;5017258;28;20418;-73
2021/11/16 05:18:42;;;;;;;25.23;11.80;;;8.50;1.00;;;;;;5016731;28;20423;-73
2021/11/16 05:21:10;;;;;;;23.70;11.17;;;8.50;1.00;;;;;;5017525;28;20381;-77
2021/11/16 05:23:47;;;;;;;41.83;12.37;;;8.40;1.00;;;;;;5017280;28;20451;-78
2021/11/16 05:26:15;;;;;;;29.27;12.63;;;8.40;1.00;;;;;;5006791;28;20443;-77
2021/11/16 05:28:40;;;;;;;27.23;12.33;;;8.40;1.00;;;;;;5011207;28;20430;-77
2021/11/16 05:31:50;;;;;;;30.33;12.33;;;8.50;1.00;;;;;;5016587;28;20506;-77
2021/11/16 05:34:33;;;;;;;26.53;11.97;;;8.50;1.00;;;;;;5006070;28;20176;-77
2021/11/16 05:36:59;;;;;;;24.80;11.50;;;;;;;;;;5017201;28;20426;-73
2021/11/16 05:39:27;;;;;;;25.50;12.07;;;8.50;1.00;;;;;;5016443;28;20428;-73
2021/11/16 05:41:52;;;;;;;30.17;12.30;;;8.50;1.00;;;;;;5016775;28;20459;-73
2021/11/16 05:44:18;;;;;;;25.73;11.70;;;8.50;1.00;;;;;;5016529;28;20484;-73
2021/11/16 05:46:45;;;;;;;28.27;12.47;;;9.50;1.00;;;;;;5016325;28;20192;-72
2021/11/16 05:49:11;;;;;;;26.33;11.93;;;8.60;1.00;;;;;;5016567;28;20187;-73
2021/11/16 05:51:44;;;;;;;26.53;12.70;;;8.50;1.00;;;;;;5016957;28;20431;-77
2021/11/16 05:54:27;;;;;;;33.83;11.97;;;8.60;1.00;;;;;;5016653;28;20432;-77
2021/11/16 05:56:57;;;;;;;30.27;13.90;;;8.60;1.00;;;;;;5016723;28;20518;-77
2021/11/16 05:59:56;;;;;;;22.90;11.20;;;8.60;1.00;;;;;;5015446;28;20431;-77
2021/11/16 06:02:32;;;;;;;26.83;11.33;;;8.60;1.00;;;;;;5015707;28;20535;-78
2021/11/16 06:05:15;;;;;;;24.33;11.37;;;8.60;1.00;;;;;;5013852;28;20865;-76
2021/11/16 06:08:17;;;;;;;29.90;11.33;;;8.60;1.00;;;;;;5015824;28;20989;-79
2021/11/16 06:10:43;;;;;;;26.40;11.80;;;8.60;1.00;;;;;;5016465;28;20423;-77
2021/11/16 06:16:32;;;;;;;26.67;10.60;;;8.60;1.00;;;;;;5011630;28;20275;-80
2021/11/16 06:19:18;;;;;;;28.00;11.60;;;8.60;1.00;;;;;;5016504;28;20424;-77
2021/11/16 06:21:45;;;;;;;27.87;11.80;;;8.60;1.00;;;;;;5016025;28;20435;-77
2021/11/16 06:24:21;;;;;;;27.07;11.37;;;8.60;1.00;;;;;;5016184;28;20474;-77
2021/11/16 06:27:08;;;;;;;20.17;10.87;;;8.60;1.00;;;;;;5016057;28;20424;-77
2021/11/16 06:29:56;;;;;;;37.53;11.80;;;8.60;1.00;;;;;;5015829;28;20416;-77
2021/11/16 06:32:50;;;;;;;25.10;10.63;;;8.60;1.00;;;;;;5015748;28;20895;-77
2021/11/16 06:35:23;;;;;;;36.50;12.50;;;8.50;1.00;;;;;;5015782;28;20435;-75
2021/11/16 06:37:52;;;;;;;25.70;11.83;;;8.50;1.00;;;;;;5012190;28;20526;-78
2021/11/16 06:40:27;;;;;;;41.83;13.60;;;8.60;1.00;;;;;;5011719;28;20415;-78
2021/11/16 06:43:38;;;;;;;28.20;12.10;;;8.50;1.00;;;;;;5029416;28;20427;-78
2021/11/16 06:46:33;;;;;;;36.20;12.50;;;8.60;1.00;;;;;;5015439;28;20420;-77
2021/11/16 06:49:07;;;;;;;24.77;11.20;;;8.60;1.00;;;;;;5015934;28;20432;-77
2021/11/16 06:51:37;;;;;;;29.00;12.03;;;8.60;1.00;;;;;;5005161;28;20415;-73
2021/11/16 06:54:18;;;;;;;28.03;12.23;;;8.70;1.00;;;;;;5015349;28;20424;-73
2021/11/16 06:56:49;;;;;;;31.43;12.77;;;8.60;1.00;;;;;;5000301;28;20994;-72
2021/11/16 06:59:16;;;;;;;34.13;11.83;;;8.60;1.00;;;;;;5008036;28;20439;-73
2021/11/16 07:01:45;;;;;;;31.90;12.53;;;8.60;1.00;;;;;;5010083;28;20443;-73
2021/11/16 07:04:12;;;;;;;27.40;12.00;;;8.60;1.00;;;;;;5011330;28;20459;-72
2021/11/16 07:07:08;;;;;;;26.37;11.17;;;8.60;1.00;;;;;;5013970;28;20522;-77
2021/11/16 07:09:39;;;;;;;22.63;11.57;;;8.60;1.00;;;;;;5000601;28;21145;-77
2021/11/16 07:12:26;;;;;;;35.27;13.57;;;8.60;1.00;;;;;;5014848;28;20428;-78
2021/11/16 07:15:04;;;;;;;30.73;11.87;;;8.60;1.00;;;;;;4998010;28;20399;-77
2021/11/16 07:17:59;;;;;;;35.90;13.80;;;8.60;1.00;;;;;;5015109;28;21032;-77
2021/11/16 07:20:46;;;;;;;29.23;11.57;;;8.60;1.00;;;;;;5009875;28;20789;-76
2021/11/16 07:23:12;;;;;;;29.60;12.10;;;8.60;1.00;;;;;;5014541;28;20510;-74
2021/11/16 07:25:38;;;;;;;34.50;12.83;;;8.60;1.00;;;;;;5011400;28;20408;-76
2021/11/16 07:28:04;;;;;;;35.87;13.10;;;8.60;1.00;;;;;;5014404;28;20788;-73
2021/11/16 07:30:35;;;;;;;27.23;11.90;;;8.60;1.00;;;;;;5013658;28;20803;-75
2021/11/16 07:33:14;;;;;;;25.90;11.90;;;8.70;1.00;;;;;;5014128;28;20423;-74
2021/11/16 07:35:41;;;;;;;22.83;11.00;;;8.70;1.00;;;;;;5007857;28;20418;-72
2021/11/16 07:38:11;;;;;;;31.73;11.63;;;8.70;1.00;;;;;;5013672;28;20432;-73
2021/11/16 07:40:45;;;;;;;24.47;11.63;;;8.70;1.00;;;;;;5014796;28;20479;-73
2021/11/16 07:43:17;;;;;;;21.27;11.07;;;8.70;1.00;;;;;;5011415;28;20782;-73
2021/11/16 07:45:44;;;;;;;20.63;10.80;;;8.70;1.00;;;;;;5013890;28;20428;-73
2021/11/16 07:48:18;;;;;;;23.30;11.43;;;8.80;1.00;;;;;;5014520;28;20423;-74
2021/11/16 07:51:04;;;;;;;26.40;11.47;;;8.80;1.00;;;;;;5014367;28;20455;-74
2021/11/16 07:53:34;;;;;;;23.50;11.63;;;8.80;1.00;;;;;;5004334;28;20440;-74
2021/11/16 07:56:09;;;;;;;24.10;11.50;;;8.80;1.00;;;;;;5012684;28;20435;-74
2021/11/16 07:58:43;;;;;;;28.60;11.23;;;8.90;1.00;;;;;;5012713;28;20484;-74
2021/11/16 08:01:16;;;;;;;30.03;11.70;;;8.90;1.00;;;;;;5006163;28;20483;-74
2021/11/16 08:06:32;;;;;;;29.23;11.20;;;8.90;1.00;;;;;;5014469;28;20969;-74
2021/11/16 08:09:13;;;;;;;24.23;11.30;;;8.90;1.00;;;;;;5014203;28;20420;-73
2021/11/16 08:11:45;;;;;;;26.20;12.23;;;8.90;1.00;;;;;;5013823;28;20428;-73
2021/11/16 08:14:12;;;;;;;25.40;11.10;;;8.90;1.00;;;;;;5001308;28;20424;-73
2021/11/16 08:16:50;;;;;;;33.13;12.47;;;8.90;1.00;;;;;;5013249;28;20883;-73
2021/11/16 08:19:23;;;;;;;24.80;10.60;;;8.90;1.00;;;;;;5013837;28;20922;-73
2021/11/16 08:21:55;;;;;;;23.97;10.90;;;8.90;1.00;;;;;;5014071;28;20423;-77
2021/11/16 08:24:30;;;;;;;32.33;12.27;;;8.90;1.00;;;;;;5013723;28;20456;-77
2021/11/16 08:27:50;;;;;;;28.90;11.67;;;9.00;1.00;;;;;;5003830;28;20420;-77
2021/11/16 08:30:45;;;;;;;28.00;11.80;;;9.00;1.00;;;;;;5012994;28;20412;-77
2021/11/16 08:36:44;;;;;;;30.07;11.10;;;9.00;1.00;;;;;;5013230;28;20619;-73
2021/11/16 08:39:31;;;;;;;24.90;10.00;;;9.00;1.00;;;;;;5010206;28;20416;-73
2021/11/16 08:41:57;;;;;;;21.97;9.77;;;9.00;1.00;;;;;;5009163;28;20483;-74
2021/11/16 08:44:30;;;;;;;23.43;10.57;;;9.00;1.00;;;;;;5012215;28;20452;-75
2021/11/16 08:47:08;;;;;;;22.10;10.30;;;9.10;1.00;;;;;;5013127;28;20609;-74
2021/11/16 08:49:42;;;;;;;25.00;10.40;;;9.10;1.00;;;;;;5005734;28;20424;-73
2021/11/16 08:52:16;;;;;;;30.33;12.20;;;9.10;1.00;;;;;;5002445;28;20416;-77
2021/11/16 08:54:57;;;;;;;26.10;10.53;;;9.10;1.00;;;;;;5011454;28;20826;-78
2021/11/16 09:00:49;;;;;;;24.00;10.70;;;9.10;1.00;;;;;;5008873;28;20780;-77
2021/11/16 09:03:26;;;;;;;26.83;10.50;;;9.10;1.00;;;;;;5010970;28;20784;-77
2021/11/16 09:06:22;;;;;;;20.07;10.63;;;9.10;1.00;;;;;;5002498;28;20442;-77
2021/11/16 09:09:11;;;;;;;28.83;11.00;;;9.10;1.00;;;;;;5009000;28;20466;-78
2021/11/16 09:12:26;;;;;;;24.07;10.20;;;9.10;1.00;;;;;;5013186;28;20645;-77
2021/11/16 09:14:54;;;;;;;21.73;10.17;;;9.10;1.00;;;;;;5012224;28;20474;-77
2021/11/16 09:18:02;;;;;;;25.50;11.40;;;9.10;1.00;;;;;;5013191;28;20388;-77
2021/11/16 09:24:11;;;;;;;21.80;10.30;;;9.10;1.00;;;;;;4993734;28;20479;-78
2021/11/16 09:27:13;;;;;;;21.07;10.63;;;9.10;1.00;;;;;;5010000;28;20431;-78
2021/11/16 09:29:40;;;;;;;19.93;10.30;;;9.10;1.00;;;;;;5010979;28;20776;-78
2021/11/16 09:32:32;;;;;;;24.87;10.50;;;9.10;1.00;;;;;;5013548;28;20860;-79
2021/11/16 09:35:03;;;;;;;22.00;11.13;;;9.10;1.00;;;;;;5002160;28;20419;-79
2021/11/16 09:37:30;;;;;;;23.47;10.87;;;;;;;;;;5009172;28;20486;-74
2021/11/16 09:39:58;;;;;;;22.43;11.10;;;9.10;1.00;;;;;;5010815;28;20478;-74
2021/11/16 09:42:28;;;;;;;30.50;11.73;;;9.10;1.00;;;;;;5009069;28;20506;-74
2021/11/16 09:44:59;;;;;;;28.13;11.60;;;9.10;1.00;;;;;;5010320;28;20499;-74
2021/11/16 09:47:32;;;;;;;22.30;11.70;;;9.10;1.00;;;;;;5011136;28;20435;-74
2021/11/16 09:50:01;;;;;;;27.53;12.10;;;9.20;1.00;;;;;;5012415;28;20439;-74
2021/11/16 09:52:34;;;;;;;22.33;10.10;;;9.10;1.00;;;;;;5012956;28;20420;-78
2021/11/16 09:55:10;;;;;;;29.23;10.87;;;9.20;1.00;;;;;;5016028;28;20475;-78
2021/11/16 09:57:38;;;;;;;26.73;10.37;;;;;;;;;;5015357;28;20446;-78
2021/11/16 10:00:18;;;;;;;26.70;11.80;;;9.20;1.00;;;;;;5015464;28;20424;-78
2021/11/16 10:02:47;;;;;;;25.30;11.63;;;9.20;1.00;;;;;;5014998;28;20439;-78
2021/11/16 10:05:21;;;;;;;25.13;10.33;;;9.20;1.00;;;;;;5015067;28;20463;-78
2021/11/16 10:07:50;;;;;;;29.07;11.93;;;9.30;1.00;;;;;;5015849;28;20917;-75
2021/11/16 10:10:17;;;;;;;25.07;11.67;;;9.30;1.00;;;;;;5014086;28;20947;-76
2021/11/16 10:12:49;;;;;;;24.87;11.40;;;9.40;1.00;;;;;;5015055;28;20447;-74
2021/11/16 10:15:19;;;;;;;22.60;10.77;;;9.40;1.00;;;;;;5007497;28;20428;-74
2021/11/16 10:17:47;;;;;;;22.40;10.70;;;9.40;1.00;;;;;;5010098;28;20437;-74
2021/11/16 10:20:15;;;;;;;23.10;9.73;;;9.40;1.00;;;;;;5014853;28;20432;-74
2021/11/16 10:22:42;;;;;;;23.10;10.23;;;9.50;1.00;;;;;;5015531;28;20772;-78
2021/11/16 10:25:29;;;;;;;19.53;10.17;;;9.50;1.00;;;;;;5014960;28;20950;-78
2021/11/16 10:27:59;;;;;;;23.17;10.90;;;9.50;1.00;;;;;;5014361;28;21013;-78
2021/11/16 10:30:28;;;;;;;20.77;10.40;;;9.60;1.00;;;;;;5013556;28;20424;-80
2021/11/16 10:39:38;;;;;;;22.83;11.43;;;9.60;1.00;;;;;;5012857;28;20466;-73
2021/11/16 10:42:06;;;;;;;27.87;11.63;;;9.60;1.00;;;;;;5015133;28;20428;-74
2021/11/16 10:44:37;;;;;;;31.43;12.80;;;9.60;1.00;;;;;;5014028;28;20473;-74
2021/11/16 10:47:06;;;;;;;27.90;11.87;;;9.60;1.00;;;;;;5015563;28;20422;-74
2021/11/16 10:49:33;;;;;;;25.07;12.30;;;9.60;1.00;;;;;;5007265;28;20498;-73
2021/11/16 10:51:59;;;;;;;31.17;12.17;;;9.60;1.00;;;;;;5012920;28;20420;-73
2021/11/16 10:54:25;;;;;;;28.37;12.70;;;9.60;1.00;;;;;;5006766;28;20400;-73
2021/11/16 10:57:05;;;;;;;24.00;11.97;;;9.60;1.00;;;;;;5015195;28;20412;-74
2021/11/16 10:59:32;;;;;;;24.93;12.10;;;9.70;1.00;;;;;;5014475;28;20450;-73
2021/11/16 11:02:17;;;;;;;27.07;10.40;;;9.70;1.00;;;;;;5013618;28;20947;-74
2021/11/16 11:04:45;;;;;;;30.10;11.93;;;9.70;1.00;;;;;;5015075;28;20462;-74
2021/11/16 11:07:13;;;;;;;36.17;12.40;;;9.80;1.00;;;;;;5013585;28;20923;-74
2021/11/16 11:09:57;;;;;;;33.63;10.90;;;9.90;1.00;;;;;;5015289;28;20467;-77
2021/11/16 11:16:32;;;;;;;27.33;12.17;;;10.00;1.00;;;;;;5013299;28;20419;-80
2021/11/16 11:19:44;;;;;;;29.13;12.63;;;10.10;1.00;;;;;;5009621;28;20443;-77
2021/11/16 11:23:02;;;;;;;34.70;10.23;;;10.10;1.00;;;;;;5010954;28;20404;-77
2021/11/16 11:28:00;;;;;;;25.63;10.40;;;10.00;1.00;;;;;;5003042;28;20883;-73
2021/11/16 11:30:26;;;;;;;20.40;10.07;;;10.00;1.00;;;;;;5013216;28;20424;-73
2021/11/16 11:32:54;;;;;;;24.60;10.67;;;9.90;1.00;;;;;;5013305;28;20785;-73
2021/11/16 11:35:27;;;;;;;23.97;10.83;;;9.90;1.00;;;;;;5009585;28;20435;-73
2021/11/16 11:37:58;;;;;;;24.80;11.27;;;9.80;1.00;;;;;;5007285;28;20431;-73
2021/11/16 11:41:04;;;;;;;19.47;10.27;;;9.80;1.00;;;;;;5011394;28;20434;-77
2021/11/16 11:43:30;;;;;;;28.53;10.47;;;9.80;1.00;;;;;;5009812;28;20527;-79
2021/11/16 11:45:56;;;;;;;22.30;10.00;;;9.80;1.00;;;;;;5005678;28;20421;-77
2021/11/16 11:48:26;;;;;;;24.00;10.83;;;9.80;1.00;;;;;;5004306;28;20817;-78
2021/11/16 11:51:03;;;;;;;23.60;10.20;;;9.80;1.00;;;;;;5013746;28;20578;-78
2021/11/16 11:53:32;;;;;;;18.90;9.77;;;9.80;1.00;;;;;;5013772;28;20811;-77
2021/11/16 11:56:07;;;;;;;28.83;11.47;;;9.90;1.00;;;;;;5018898;28;20408;-78
2021/11/16 11:58:44;;;;;;;22.70;10.27;;;9.80;1.00;;;;;;5013404;28;20442;-77
2021/11/16 12:01:13;;;;;;;20.00;8.87;;;9.80;1.00;;;;;;5013128;28;20447;-77
2021/11/16 12:03:41;;;;;;;23.53;10.50;;;9.80;1.00;;;;;;5012793;28;20853;-77
2021/11/16 12:06:07;;;;;;;25.40;11.10;;;9.80;1.00;;;;;;5012675;28;20520;-78
2021/11/16 12:08:33;;;;;;;22.93;11.20;;;9.80;1.00;;;;;;5013625;28;20423;-79
2021/11/16 12:10:59;;;;;;;20.70;10.30;;;9.80;1.00;;;;;;5012704;28;20424;-78
2021/11/16 12:13:28;;;;;;;21.00;10.50;;;10.10;1.00;;;;;;5006426;28;20432;-78
2021/11/16 12:16:12;;;;;;;21.77;10.43;;;9.90;1.00;;;;;;5005436;28;21001;-78
2021/11/16 12:18:41;;;;;;;22.43;10.33;;;9.90;1.00;;;;;;5008204;28;20444;-79
2021/11/16 12:21:42;;;;;;;26.77;12.10;;;9.80;1.00;;;;;;5006810;28;20486;-78
2021/11/16 12:24:10;;;;;;;25.73;10.17;;;9.80;1.00;;;;;;4998129;28;20458;-78
2021/11/16 12:26:59;;;;;;;22.77;11.40;;;9.80;1.00;;;;;;5007861;28;20425;-78
2021/11/16 12:29:28;;;;;;;36.13;10.47;;;9.80;1.00;;;;;;5012762;28;20784;-77
2021/11/16 12:32:09;;;;;;;19.83;9.93;;;9.80;1.00;;;;;;5012719;28;20954;-79
2021/11/16 12:34:40;;;;;;;30.77;10.17;;;9.80;1.00;;;;;;5013003;28;20973;-78
2021/11/16 12:37:11;;;;;;;31.07;10.10;;;9.80;1.00;;;;;;5011625;28;20439;-78
2021/11/16 12:39:58;;;;;;;25.93;11.03;;;9.70;1.00;;;;;;5012852;28;20522;-73
2021/11/16 12:42:24;;;;;;;32.73;11.10;;;9.70;1.00;;;;;;5011484;28;20753;-73
2021/11/16 12:45:00;;;;;;;26.53;12.17;;;9.70;1.00;;;;;;5012659;28;20522;-73
2021/11/16 12:47:31;;;;;;;28.20;11.27;;;9.70;1.00;;;;;;5006617;28;20224;-73
2021/11/16 12:50:33;;;;;;;23.50;11.73;;;9.70;1.00;;;;;;5012657;28;20526;-74
2021/11/16 12:52:59;;;;;;;24.17;11.10;;;;;;;;;;5011602;28;20419;-74
2021/11/16 12:59:03;;;;;;;20.97;11.20;;;9.70;1.00;;;;;;5001731;28;20450;-77
2021/11/16 13:01:43;;;;;;;28.23;12.57;;;9.70;1.00;;;;;;5003060;28;20455;-77
2021/11/16 13:04:14;;;;;;;22.33;11.53;;;9.70;1.00;;;;;;5010147;28;20463;-77
2021/11/16 13:06:42;;;;;;;29.93;11.27;;;9.70;1.00;;;;;;5013485;28;20515;-78
2021/11/16 13:09:30;;;;;;;23.37;11.27;;;9.60;1.00;;;;;;5013520;28;20448;-78
2021/11/16 13:12:32;;;;;;;20.47;10.50;;;9.60;1.00;;;;;;5012942;28;21071;-78
2021/11/16 13:15:21;;;;;;;24.00;10.90;;;9.70;1.00;;;;;;5013613;28;20424;-78
2021/11/16 13:18:07;;;;;;;18.77;9.33;;;9.60;1.00;;;;;;5013758;28;20411;-78
2021/11/16 13:20:43;;;;;;;27.70;12.37;;;9.60;1.00;;;;;;5013347;28;20462;-78
2021/11/16 13:26:44;;;;;;;27.30;13.77;;;9.50;1.00;;;;;;5012637;28;20454;-77
2021/11/16 13:29:33;;;;;;;27.80;12.40;;;9.50;1.00;;;;;;5012526;28;20416;-77
2021/11/16 13:32:06;;;;;;;35.93;12.50;;;9.40;1.00;;;;;;5017163;28;20440;-77
2021/11/16 13:34:44;;;;;;;28.47;11.60;;;9.50;1.00;;;;;;5016907;28;20412;-80
2021/11/16 13:40:32;;;;;;;22.97;11.80;;;9.30;1.00;;;;;;5017130;28;20410;-75
2021/11/16 13:43:05;;;;;;;25.83;11.63;;;9.30;1.00;;;;;;5016809;28;20400;-75
2021/11/16 13:45:50;;;;;;;27.93;11.33;;;9.30;1.00;;;;;;5015346;28;20201;-75
2021/11/16 13:48:21;;;;;;;20.90;11.00;;;9.20;1.00;;;;;;5013981;28;20431;-75
2021/11/16 13:50:46;;;;;;;37.53;11.80;;;9.20;1.00;;;;;;5016616;28;20456;-74
2021/11/16 13:53:15;;;;;;;21.50;10.23;;;9.20;1.00;;;;;;5016807;28;20948;-74
2021/11/16 13:59:33;;;;;;;19.63;10.53;;;9.20;1.00;;;;;;5010920;28;20422;-77
2021/11/16 14:02:05;;;;;;;24.33;11.40;;;9.20;1.00;;;;;;5003839;28;20428;-79
2021/11/16 14:04:33;;;;;;;21.60;10.33;;;9.20;1.00;;;;;;5016234;28;20992;-79
2021/11/16 14:07:32;;;;;;;25.40;10.73;;;9.10;1.00;;;;;;5011423;28;20420;-78
2021/11/16 14:10:04;;;;;;;21.70;10.93;;;;;;;;;;5017593;28;20827;-74
2021/11/16 14:12:30;;;;;;;22.90;10.80;;;9.20;1.00;;;;;;5010843;28;20427;-74
2021/11/16 14:14:58;;;;;;;26.90;11.90;;;9.30;1.00;;;;;;5015976;28;20752;-74
2021/11/16 14:17:27;;;;;;;25.23;11.20;;;9.30;1.00;;;;;;5016392;28;20175;-74
2021/11/16 14:19:55;;;;;;;24.87;11.17;;;9.30;1.00;;;;;;5016267;28;20412;-74
2021/11/16 14:22:34;;;;;;;26.33;10.40;;;9.30;1.00;;;;;;5016158;28;20408;-74
2021/11/16 14:28:25;;;;;;;23.20;10.67;;;9.20;1.00;;;;;;5006082;28;20399;-79
2021/11/16 14:31:07;;;;;;;24.23;10.90;;;9.30;1.00;;;;;;5013699;28;20412;-78
2021/11/16 14:33:51;;;;;;;28.40;11.23;;;9.20;1.00;;;;;;5014816;28;20427;-78
2021/11/16 14:37:02;;;;;;;20.67;10.63;;;9.30;1.00;;;;;;4996359;28;20398;-80